createdAt,value
2023-03-22T00:01:37.624Z,9.90
2023-03-22T00:04:04.618Z,11.68
2023-03-22T00:06:31.413Z,9.43
2023-03-22T00:08:58.181Z,10.43
2023-03-22T00:11:25.843Z,9.52
2023-03-22T00:13:53.582Z,9.75
2023-03-22T00:16:21.757Z,9.15
2023-03-22T00:18:48.730Z,9.82
2023-03-22T00:21:17.624Z,16.63
2023-03-22T00:23:45.392Z,14.32
2023-03-22T00:26:14.751Z,12.18
2023-03-22T00:28:42.295Z,14.13
2023-03-22T00:31:09.700Z,11.13
2023-03-22T00:33:37.108Z,11.23
2023-03-22T00:36:10.267Z,13.18
2023-03-22T00:38:42.822Z,10.07
2023-03-22T00:41:18.461Z,11.07
2023-03-22T00:43:46.796Z,10.63
2023-03-22T00:46:15.472Z,11.27
2023-03-22T00:48:42.383Z,9.93
2023-03-22T00:51:10.764Z,10.85
2023-03-22T00:53:42.353Z,11.20
2023-03-22T00:56:13.931Z,11.48
2023-03-22T00:58:42.068Z,9.85
2023-03-22T01:01:09.297Z,11.60
2023-03-22T01:03:36.278Z,10.27
2023-03-22T01:06:03.513Z,12.82
2023-03-22T01:08:33.350Z,10.70
2023-03-22T01:11:01.344Z,10.60
2023-03-22T01:13:29.001Z,13.30
2023-03-22T01:15:56.220Z,9.68
2023-03-22T01:18:23.465Z,10.25
2023-03-22T01:20:51.395Z,9.57
2023-03-22T01:23:18.251Z,12.38
2023-03-22T01:25:45.051Z,11.05
2023-03-22T01:28:12.008Z,10.15
2023-03-22T01:30:40.941Z,10.65
2023-03-22T01:33:08.577Z,10.02
2023-03-22T01:35:36.596Z,11.05
2023-03-22T01:38:04.022Z,11.68
2023-03-22T01:40:30.946Z,12.55
2023-03-22T01:42:57.677Z,14.98
2023-03-22T01:45:45.836Z,12.60
2023-03-22T01:48:45.919Z,9.93
2023-03-22T01:51:23.186Z,13.30
2023-03-22T01:54:08.044Z,11.43
2023-03-22T01:56:39.400Z,10.30
2023-03-22T01:59:10.017Z,10.82
2023-03-22T02:01:37.968Z,11.07
2023-03-22T02:04:16.935Z,11.60
2023-03-22T02:06:44.497Z,10.18
2023-03-22T02:09:13.555Z,10.82
2023-03-22T02:11:43.251Z,13.10
2023-03-22T02:14:38.615Z,10.35
2023-03-22T02:17:19.370Z,16.42
2023-03-22T02:20:28.402Z,11.65
2023-03-22T02:23:09.624Z,11.13
2023-03-22T02:25:57.332Z,10.13
2023-03-22T02:29:08.100Z,11.52
2023-03-22T02:32:03.557Z,8.70
2023-03-22T02:34:55.050Z,7.88
2023-03-22T02:37:45.616Z,11.60
2023-03-22T02:40:16.965Z,11.98
2023-03-22T02:42:56.482Z,9.50
2023-03-22T02:45:52.672Z,9.95
2023-03-22T02:49:00.614Z,9.05
2023-03-22T02:51:45.277Z,8.38
2023-03-22T02:54:28.698Z,7.85
2023-03-22T02:57:16.054Z,11.70
2023-03-22T02:59:44.779Z,9.45
2023-03-22T03:02:17.326Z,9.27
2023-03-22T03:04:48.547Z,8.40
2023-03-22T03:07:21.941Z,5.50
2023-03-22T03:09:50.529Z,7.57
2023-03-22T03:12:26.428Z,7.55
2023-03-22T03:14:53.386Z,6.90
2023-03-22T03:17:38.956Z,6.90
2023-03-22T03:20:17.833Z,7.03
2023-03-22T03:23:28.824Z,11.73
2023-03-22T03:30:21.763Z,6.13
2023-03-22T03:33:03.257Z,7.63
2023-03-22T03:35:38.317Z,6.13
2023-03-22T03:38:20.462Z,8.88
2023-03-22T03:41:11.397Z,6.07
2023-03-22T03:43:40.148Z,5.82
2023-03-22T03:46:07.934Z,7.75
2023-03-22T03:48:37.943Z,6.57
2023-03-22T03:51:05.525Z,5.90
2023-03-22T03:53:32.638Z,8.90
2023-03-22T03:55:59.446Z,6.53
2023-03-22T03:58:26.273Z,8.25
2023-03-22T04:23:03.530Z,6.80
2023-03-22T04:25:30.389Z,8.32
2023-03-22T04:27:57.354Z,6.30
2023-03-22T04:30:24.602Z,7.03
2023-03-22T04:32:51.528Z,8.43
2023-03-22T04:35:18.518Z,8.10
2023-03-22T04:37:45.568Z,7.07
2023-03-22T04:40:17.064Z,6.40
2023-03-22T04:42:45.397Z,7.15
2023-03-22T04:45:13.364Z,5.75
2023-03-22T04:47:40.658Z,5.05
2023-03-22T04:50:09.069Z,8.55
2023-03-22T04:52:35.859Z,8.52
2023-03-22T04:55:02.796Z,9.15
2023-03-22T04:57:29.548Z,7.65
2023-03-22T04:59:56.333Z,7.88
2023-03-22T05:02:23.342Z,8.50
2023-03-22T05:04:50.253Z,6.35
2023-03-22T05:07:16.967Z,9.88
2023-03-22T05:09:43.677Z,9.65
2023-03-22T05:12:10.981Z,8.20
2023-03-22T05:14:37.742Z,5.20
2023-03-22T05:17:04.506Z,7.45
2023-03-22T05:19:31.404Z,5.00
2023-03-22T05:22:01.753Z,5.32
2023-03-22T05:24:31.653Z,5.72
2023-03-22T05:27:00.954Z,6.68
2023-03-22T05:29:28.456Z,8.75
2023-03-22T05:31:55.304Z,5.72
2023-03-22T05:34:22.168Z,8.85
2023-03-22T05:36:51.438Z,6.95
2023-03-22T05:39:18.206Z,6.88
2023-03-22T05:41:45.985Z,7.88
2023-03-22T05:44:12.702Z,9.35
2023-03-22T05:46:39.492Z,3.88
2023-03-22T05:49:06.271Z,7.15
2023-03-22T05:51:33.029Z,7.38
2023-03-22T05:53:59.961Z,5.43
2023-03-22T05:56:26.743Z,7.82
2023-03-22T05:58:53.487Z,9.70
2023-03-22T06:01:21.332Z,10.80
2023-03-22T06:03:48.966Z,7.70
2023-03-22T06:06:16.049Z,6.07
2023-03-22T06:08:43.349Z,6.38
2023-03-22T06:11:10.358Z,7.63
2023-03-22T06:13:37.655Z,8.32
2023-03-22T06:16:05.968Z,7.13
2023-03-22T06:18:33.380Z,8.07
2023-03-22T06:21:00.644Z,9.30
2023-03-22T06:23:28.143Z,6.07
2023-03-22T06:25:55.156Z,6.63
2023-03-22T06:28:21.907Z,10.23
2023-03-22T06:30:48.680Z,6.40
2023-03-22T06:33:15.583Z,7.05
2023-03-22T06:35:42.364Z,6.15
2023-03-22T06:38:09.608Z,11.15
2023-03-22T06:40:40.268Z,8.57
2023-03-22T06:43:07.557Z,6.13
2023-03-22T06:45:35.850Z,7.15
2023-03-22T06:48:02.792Z,8.80
2023-03-22T06:50:29.673Z,5.82
2023-03-22T06:52:56.753Z,6.70
2023-03-22T06:55:23.930Z,5.03
2023-03-22T06:57:50.694Z,6.72
2023-03-22T07:00:18.005Z,7.85
2023-03-22T07:02:44.756Z,7.28
2023-03-22T07:05:11.567Z,6.35
2023-03-22T07:07:38.494Z,7.45
2023-03-22T07:10:07.713Z,7.20
2023-03-22T07:12:35.226Z,6.43
2023-03-22T07:15:03.030Z,7.97
2023-03-22T07:17:29.915Z,6.00
2023-03-22T07:19:57.028Z,6.80
2023-03-22T07:22:24.900Z,7.05
2023-03-22T07:24:57.729Z,6.55
2023-03-22T07:27:25.935Z,6.20
2023-03-22T07:29:52.720Z,6.53
2023-03-22T07:32:19.576Z,6.07
2023-03-22T07:34:46.844Z,7.40
2023-03-22T07:37:13.670Z,6.43
2023-03-22T07:39:40.456Z,6.05
2023-03-22T07:42:07.287Z,5.00
2023-03-22T07:44:34.048Z,6.45
2023-03-22T07:47:00.867Z,3.88
2023-03-22T07:49:27.796Z,6.68
2023-03-22T07:51:54.568Z,5.63
2023-03-22T07:54:33.051Z,5.47
2023-03-22T07:57:01.648Z,10.18
2023-03-22T07:59:28.804Z,9.30
2023-03-22T08:01:55.619Z,8.00
2023-03-22T08:04:22.648Z,6.32
2023-03-22T08:06:49.749Z,11.30
2023-03-22T08:09:16.769Z,3.78
2023-03-22T08:11:43.556Z,8.07
2023-03-22T08:14:10.575Z,6.70
2023-03-22T08:16:38.271Z,6.80
2023-03-22T08:19:05.136Z,5.60
2023-03-22T08:21:31.845Z,8.65
2023-03-22T08:23:58.610Z,5.60
2023-03-22T08:26:26.154Z,4.32
2023-03-22T08:28:53.041Z,4.80
2023-03-22T08:31:20.137Z,4.68
2023-03-22T08:33:47.702Z,6.30
2023-03-22T08:36:19.123Z,7.72
2023-03-22T08:38:45.897Z,5.03
2023-03-22T08:41:13.358Z,5.53
2023-03-22T08:43:40.293Z,8.25
2023-03-22T08:46:07.255Z,4.60
2023-03-22T08:48:35.672Z,10.32
2023-03-22T08:51:02.486Z,6.15
2023-03-22T08:53:29.498Z,6.55
2023-03-22T08:55:58.022Z,5.28
2023-03-22T08:58:24.927Z,8.23
2023-03-22T09:00:54.050Z,3.58
2023-03-22T09:03:20.837Z,7.88
2023-03-22T09:05:47.541Z,5.70
2023-03-22T09:08:19.199Z,6.05
2023-03-22T09:10:51.861Z,7.10
2023-03-22T09:13:19.908Z,5.93
2023-03-22T09:15:47.643Z,9.38
2023-03-22T09:18:15.235Z,4.82
2023-03-22T09:20:44.531Z,4.93
2023-03-22T09:23:12.269Z,4.97
2023-03-22T09:25:39.155Z,6.07
2023-03-22T09:28:06.178Z,5.53
2023-03-22T09:30:32.974Z,6.03
2023-03-22T09:32:59.812Z,5.32
2023-03-22T09:35:26.612Z,7.47
2023-03-22T09:37:54.342Z,8.10
2023-03-22T09:40:31.307Z,6.60
2023-03-22T09:43:01.751Z,4.57
2023-03-22T09:45:40.967Z,8.65
2023-03-22T09:48:26.496Z,5.32
2023-03-22T09:50:55.207Z,5.25
2023-03-22T09:53:25.443Z,5.13
2023-03-22T09:56:08.709Z,4.40
2023-03-22T09:59:03.830Z,4.57
2023-03-22T10:01:45.852Z,7.75
2023-03-22T10:04:53.561Z,6.80
2023-03-22T10:07:34.415Z,7.25
2023-03-22T10:10:07.857Z,7.68
2023-03-22T10:12:37.658Z,6.43
2023-03-22T10:15:16.349Z,5.78
2023-03-22T10:17:50.106Z,5.82
2023-03-22T10:20:44.495Z,4.18
2023-03-22T10:23:18.244Z,5.40
2023-03-22T10:25:45.066Z,4.70
2023-03-22T10:28:32.401Z,4.07
2023-03-22T10:30:59.436Z,4.85
2023-03-22T10:33:38.345Z,4.53
2023-03-22T10:36:10.819Z,5.82
2023-03-22T10:38:46.448Z,3.63
2023-03-22T10:41:18.402Z,3.22
2023-03-22T10:43:50.343Z,7.32
2023-03-22T10:48:55.320Z,5.13
2023-03-22T10:51:35.803Z,8.05
2023-03-22T10:54:03.305Z,8.23
2023-03-22T10:56:30.128Z,4.50
2023-03-22T10:59:00.207Z,7.78
2023-03-22T11:01:36.808Z,6.72
2023-03-22T11:04:03.559Z,7.57
2023-03-22T11:06:36.866Z,6.20
2023-03-22T11:09:19.464Z,6.38
2023-03-22T11:12:03.464Z,6.47
2023-03-22T11:14:44.606Z,7.53
2023-03-22T11:17:25.752Z,5.00
2023-03-22T11:20:02.088Z,4.50
2023-03-22T11:22:41.479Z,6.18
2023-03-22T11:25:27.054Z,5.68
2023-03-22T11:28:17.696Z,3.78
2023-03-22T11:31:03.828Z,3.10
2023-03-22T11:33:32.036Z,6.25
2023-03-22T11:36:03.857Z,5.47
2023-03-22T11:41:13.815Z,4.35
2023-03-22T11:43:48.221Z,14.38
2023-03-22T11:46:19.194Z,4.95
2023-03-22T11:48:49.324Z,5.47
2023-03-22T11:51:26.937Z,3.40
2023-03-22T11:54:06.955Z,4.22
2023-03-22T11:56:34.659Z,4.82
2023-03-22T11:59:14.661Z,6.32
2023-03-22T12:01:56.916Z,6.53
2023-03-22T12:04:28.870Z,4.25
2023-03-22T12:06:59.901Z,3.30
2023-03-22T12:10:00.044Z,5.17
2023-03-22T12:12:33.101Z,4.93
2023-03-22T12:15:14.712Z,4.22
2023-03-22T12:18:02.707Z,12.95
2023-03-22T12:20:59.179Z,5.10
2023-03-22T12:23:32.753Z,3.38
2023-03-22T12:26:11.371Z,7.45
2023-03-22T12:28:52.586Z,2.83
2023-03-22T12:31:25.234Z,5.00
2023-03-22T12:33:55.162Z,6.68
2023-03-22T12:36:33.958Z,4.90
2023-03-22T12:39:02.416Z,3.58
2023-03-22T12:41:44.150Z,4.25
2023-03-22T12:44:36.596Z,5.15
2023-03-22T12:47:21.099Z,3.08
2023-03-22T12:50:01.974Z,6.60
2023-03-22T12:52:57.063Z,3.83
2023-03-22T12:55:37.506Z,3.78
2023-03-22T12:58:09.214Z,4.78
2023-03-22T13:00:50.104Z,3.58
2023-03-22T13:03:19.924Z,5.30
2023-03-22T13:05:52.128Z,3.58
2023-03-22T13:08:21.495Z,5.32
2023-03-22T13:11:04.895Z,3.75
2023-03-22T13:13:43.974Z,5.55
2023-03-22T13:16:10.920Z,3.90
2023-03-22T13:18:37.891Z,4.47
2023-03-22T13:21:21.273Z,3.85
2023-03-22T13:24:06.344Z,4.95
2023-03-22T13:26:47.806Z,4.05
2023-03-22T13:29:24.667Z,5.03
2023-03-22T13:31:51.451Z,6.20
2023-03-22T13:34:46.498Z,4.32
2023-03-22T13:37:45.129Z,3.80
2023-03-22T13:40:31.354Z,2.47
2023-03-22T13:43:29.235Z,2.78
2023-03-22T13:46:13.087Z,5.07
2023-03-22T13:48:52.260Z,4.90
2023-03-22T13:51:26.721Z,3.70
2023-03-22T13:54:12.539Z,4.82
2023-03-22T13:56:42.006Z,2.45
2023-03-22T14:00:03.152Z,4.68
2023-03-22T14:02:41.764Z,3.17
2023-03-22T14:05:23.536Z,7.53
2023-03-22T14:07:56.818Z,5.72
2023-03-22T14:10:51.221Z,5.40
2023-03-22T14:13:35.576Z,3.60
2023-03-22T14:16:40.786Z,5.80
2023-03-22T14:19:16.231Z,2.90
